Time;durP1;ratioP1;P1;durP2;ratioP2;P2;SDS_P1;SDS_P2;PMS_P1;PMS_P2;Temp;Humidity;BMP_temperature;BMP_pressure;BME280_temperature;BME280_humidity;BME280_pressure;Samples;Min_cycle;Max_cycle;Signal;HPM_P1;HPM_P2
2022/01/15 00:02:08;;;;;;;13.10;10.25;;;15.90;45.00;;;;;;5060204;28;20028;-36
2022/01/15 00:04:33;;;;;;;15.43;10.45;;;15.80;45.00;;;;;;5077537;28;20028;-36
2022/01/15 00:07:00;;;;;;;11.20;9.57;;;15.80;44.90;;;;;;5075860;28;20028;-35
2022/01/15 00:09:26;;;;;;;12.60;10.40;;;15.80;44.90;;;;;;5076469;28;20023;-35
2022/01/15 00:11:53;;;;;;;12.68;10.25;;;15.80;44.90;;;;;;5076428;28;20089;-35
2022/01/15 00:14:37;;;;;;;15.52;10.55;;;15.80;45.00;;;;;;5076844;28;20037;-35
2022/01/15 00:17:14;;;;;;;13.75;10.65;;;15.80;44.90;;;;;;5076901;28;20099;-35
2022/01/15 00:19:43;;;;;;;14.05;10.88;;;15.80;45.00;;;;;;5076857;28;20036;-35
2022/01/15 00:22:16;;;;;;;13.20;10.57;;;15.80;45.00;;;;;;5077833;28;20020;-36
2022/01/15 00:24:42;;;;;;;14.77;11.10;;;15.80;45.00;;;;;;5078252;28;20483;-36
2022/01/15 00:27:08;;;;;;;12.95;10.52;;;15.80;45.00;;;;;;5078216;28;20012;-35
2022/01/15 00:29:35;;;;;;;14.45;10.88;;;15.80;45.00;;;;;;5078002;28;20099;-35
2022/01/15 00:32:03;;;;;;;12.68;10.50;;;15.80;45.00;;;;;;5077213;28;20009;-35
2022/01/15 00:34:29;;;;;;;13.88;10.85;;;15.80;45.00;;;;;;5077260;28;20471;-35
2022/01/15 00:36:54;;;;;;;13.85;10.93;;;15.80;45.00;;;;;;5076122;28;20056;-35
2022/01/15 00:39:21;;;;;;;13.35;10.68;;;15.80;45.00;;;;;;5076246;28;20017;-35
2022/01/15 00:41:47;;;;;;;14.27;10.90;;;15.70;45.00;;;;;;5075222;28;20025;-35
2022/01/15 00:44:13;;;;;;;12.77;10.30;;;15.80;45.00;;;;;;5074590;28;20025;-35
2022/01/15 00:46:40;;;;;;;12.52;10.30;;;15.80;44.80;;;;;;5075936;28;20013;-35
2022/01/15 00:49:06;;;;;;;12.43;9.80;;;15.80;44.80;;;;;;5075670;28;20016;-35
2022/01/15 00:51:32;;;;;;;13.82;10.32;;;15.80;44.70;;;;;;5075477;28;20013;-35
2022/01/15 00:53:58;;;;;;;13.82;10.65;;;15.90;44.60;;;;;;5076114;28;20044;-35
2022/01/15 00:56:24;;;;;;;11.57;9.77;;;16.00;44.30;;;;;;5075093;28;20035;-35
2022/01/15 00:58:52;;;;;;;12.85;10.40;;;16.20;44.00;;;;;;5075571;28;20484;-35
2022/01/15 01:01:17;;;;;;;12.52;10.38;;;16.30;43.60;;;;;;5075887;28;20024;-35
2022/01/15 01:03:43;;;;;;;12.70;10.02;;;16.40;43.30;;;;;;5075492;28;20475;-35
2022/01/15 01:06:09;;;;;;;11.73;10.00;;;16.50;43.00;;;;;;5056146;28;20027;-35
2022/01/15 01:08:35;;;;;;;13.10;10.07;;;16.60;42.90;;;;;;5074034;28;20480;-37
2022/01/15 01:11:10;;;;;;;11.07;9.50;;;16.60;42.80;;;;;;5074117;28;20030;-36
2022/01/15 01:20:01;;;;;;;11.50;9.48;;;16.70;42.70;;;;;;5057731;28;20012;-36
2022/01/15 01:24:37;;;;;;;11.98;9.50;;;17.00;42.00;;;;;;5074891;28;20056;-35
2022/01/15 01:27:10;;;;;;;11.60;9.73;;;17.00;41.70;;;;;;5056722;28;20464;-36
2022/01/15 01:32:39;;;;;;;11.60;9.43;;;17.10;41.50;;;;;;5073895;28;20040;-35
2022/01/15 01:35:12;;;;;;;11.00;8.95;;;17.20;41.90;;;;;;5074221;28;20024;-36
2022/01/15 01:37:43;;;;;;;12.18;9.30;;;17.30;41.20;;;;;;5074726;28;20087;-36
2022/01/15 01:40:20;;;;;;;11.05;9.10;;;17.30;41.10;;;;;;5074161;28;20040;-36
2022/01/15 01:42:57;;;;;;;11.30;9.05;;;17.40;41.00;;;;;;5074060;28;20418;-35
2022/01/15 01:45:23;;;;;;;11.05;9.18;;;17.40;40.90;;;;;;5074357;28;20056;-35
2022/01/15 01:47:48;;;;;;;12.20;9.02;;;17.40;40.80;;;;;;5074589;28;20471;-35
2022/01/15 01:50:24;;;;;;;11.07;8.95;;;17.50;40.70;;;;;;5077536;28;20033;-35
2022/01/15 01:52:53;;;;;;;12.10;9.13;;;17.50;40.60;;;;;;5078640;28;20017;-35
2022/01/15 01:55:22;;;;;;;10.95;8.65;;;17.60;40.50;;;;;;5077913;28;20037;-35
2022/01/15 01:57:48;;;;;;;11.35;8.77;;;17.60;40.40;;;;;;5077429;28;20471;-36
2022/01/15 02:00:15;;;;;;;9.95;8.95;;;17.60;40.30;;;;;;5077912;28;20033;-37
2022/01/15 02:02:42;;;;;;;10.48;8.77;;;17.70;40.30;;;;;;5077359;28;20156;-35
2022/01/15 02:05:11;;;;;;;10.60;8.27;;;17.70;40.20;;;;;;5059844;28;20075;-36
2022/01/15 02:07:38;;;;;;;12.02;8.63;;;17.70;40.10;;;;;;5077325;28;20028;-35
2022/01/15 02:10:05;;;;;;;11.15;8.98;;;17.70;40.00;;;;;;5077395;28;20017;-36
2022/01/15 02:12:31;;;;;;;10.10;8.77;;;17.80;40.00;;;;;;5077574;28;20079;-35
2022/01/15 02:15:03;;;;;;;9.98;8.15;;;17.80;40.00;;;;;;5077660;28;20050;-35
2022/01/15 02:17:29;;;;;;;12.07;9.00;;;17.80;39.90;;;;;;5077176;28;20016;-36
2022/01/15 02:25:12;;;;;;;10.20;8.43;;;17.90;39.70;;;;;;5077978;28;20035;-36
2022/01/15 02:27:38;;;;;;;11.60;8.70;;;17.90;39.70;;;;;;5077448;28;20029;-36
2022/01/15 02:30:05;;;;;;;10.68;8.65;;;17.90;39.70;;;;;;5077549;28;20016;-36
2022/01/15 02:32:32;;;;;;;10.02;8.30;;;17.90;39.60;;;;;;5077346;28;20013;-35
2022/01/15 02:34:59;;;;;;;10.88;8.35;;;17.90;39.50;;;;;;5077407;28;20100;-36
2022/01/15 02:37:26;;;;;;;9.82;8.20;;;17.90;39.40;;;;;;5077407;28;20021;-36
2022/01/15 02:39:51;;;;;;;10.98;8.70;;;18.00;40.00;;;;;;5077405;28;20104;-36
2022/01/15 02:42:17;;;;;;;10.48;8.25;;;18.00;39.40;;;;;;5077585;28;20024;-35
2022/01/15 02:44:44;;;;;;;10.75;8.65;;;18.00;39.30;;;;;;5076901;28;20051;-36
2022/01/15 02:49:55;;;;;;;10.77;8.50;;;18.00;39.20;;;;;;5077395;28;20031;-35
2022/01/15 02:52:21;;;;;;;10.80;8.80;;;18.00;39.30;;;;;;5077100;28;20483;-36
2022/01/15 02:54:47;;;;;;;11.20;8.20;;;18.00;39.30;;;;;;5076799;28;20040;-36
2022/01/15 02:57:13;;;;;;;10.70;8.45;;;18.10;39.20;;;;;;5076998;28;20048;-36
2022/01/15 02:59:39;;;;;;;9.85;7.55;;;18.00;39.20;;;;;;5076359;28;20043;-35
2022/01/15 03:02:05;;;;;;;11.98;8.43;;;18.10;39.20;;;;;;5057929;28;20454;-36
2022/01/15 03:04:31;;;;;;;11.13;8.60;;;18.10;39.10;;;;;;5058244;28;20081;-36
2022/01/15 03:06:57;;;;;;;10.70;8.32;;;18.10;38.90;;;;;;5075836;28;20091;-35
2022/01/15 03:09:23;;;;;;;11.38;8.32;;;18.10;38.90;;;;;;5057659;28;20021;-35
2022/01/15 03:11:48;;;;;;;11.07;8.82;;;18.10;38.90;;;;;;5075616;28;20016;-35
2022/01/15 03:14:18;;;;;;;9.88;8.07;;;18.10;38.90;;;;;;5075382;28;20051;-36
2022/01/15 03:16:44;;;;;;;9.63;7.78;;;18.10;38.90;;;;;;5075813;28;20024;-36
2022/01/15 03:19:10;;;;;;;10.23;8.32;;;18.10;38.90;;;;;;5075367;28;20025;-35
2022/01/15 03:21:36;;;;;;;9.80;8.02;;;18.10;38.80;;;;;;5075747;28;20019;-37
2022/01/15 03:24:02;;;;;;;9.93;8.13;;;18.20;38.80;;;;;;5075192;28;20043;-37
2022/01/15 03:26:28;;;;;;;10.93;8.35;;;18.20;38.80;;;;;;5075455;28;20012;-36
2022/01/15 03:28:54;;;;;;;10.70;8.50;;;18.10;38.70;;;;;;5057829;28;20017;-37
2022/01/15 03:31:21;;;;;;;10.98;8.15;;;18.20;38.70;;;;;;5075480;28;20013;-36
2022/01/15 03:33:47;;;;;;;9.82;7.88;;;18.20;38.70;;;;;;5075311;28;20021;-35
2022/01/15 03:36:13;;;;;;;10.63;8.07;;;18.20;38.60;;;;;;5075544;28;20356;-37
2022/01/15 03:38:40;;;;;;;10.40;8.00;;;18.20;38.60;;;;;;5075773;28;20021;-36
2022/01/15 03:41:07;;;;;;;9.35;7.60;;;18.20;38.60;;;;;;5075241;28;20111;-35
2022/01/15 03:43:32;;;;;;;10.85;8.13;;;18.20;38.60;;;;;;5074458;28;20013;-36
2022/01/15 03:45:58;;;;;;;9.38;7.68;;;18.30;38.60;;;;;;5075439;28;20146;-35
2022/01/15 03:48:25;;;;;;;10.95;8.32;;;18.30;38.50;;;;;;5075501;28;20016;-37
2022/01/15 03:50:51;;;;;;;9.82;7.90;;;18.30;38.60;;;;;;5075087;28;20525;-35
2022/01/15 03:53:17;;;;;;;10.27;7.75;;;18.30;38.50;;;;;;5074501;28;20017;-36
2022/01/15 03:55:44;;;;;;;10.02;8.23;;;18.30;38.50;;;;;;5074926;28;20020;-36
2022/01/15 03:58:09;;;;;;;10.57;8.52;;;18.20;38.40;;;;;;5074808;28;20056;-36
2022/01/15 04:00:35;;;;;;;9.75;8.18;;;18.30;38.40;;;;;;5074951;28;20019;-37
2022/01/15 04:03:03;;;;;;;8.80;7.80;;;18.30;38.30;;;;;;5075227;28;20012;-36
2022/01/15 04:05:29;;;;;;;10.73;8.25;;;18.30;38.40;;;;;;5074724;28;20047;-36
2022/01/15 04:07:55;;;;;;;9.80;7.93;;;18.30;38.40;;;;;;5075027;28;20020;-35
2022/01/15 04:10:21;;;;;;;9.27;7.75;;;18.30;38.40;;;;;;5075079;28;20061;-36
2022/01/15 04:12:50;;;;;;;11.25;8.10;;;18.30;38.40;;;;;;5074296;28;20086;-35
2022/01/15 04:15:17;;;;;;;9.77;8.07;;;18.30;38.40;;;;;;5075327;28;20017;-35
2022/01/15 04:17:47;;;;;;;9.63;8.20;;;18.30;38.30;;;;;;5075207;28;20016;-35
2022/01/15 04:20:13;;;;;;;;;;;18.30;38.30;;;;;;5075047;28;20138;-35
2022/01/15 04:22:39;;;;;;;9.55;7.47;;;18.30;38.20;;;;;;5074488;28;19975;-37
2022/01/15 04:25:06;;;;;;;10.18;8.00;;;18.30;38.30;;;;;;5074064;28;20166;-36
2022/01/15 04:27:34;;;;;;;10.00;8.25;;;18.30;38.20;;;;;;5074171;28;20016;-35
2022/01/15 04:30:04;;;;;;;9.52;7.88;;;18.30;38.20;;;;;;5074140;28;20581;-36
2022/01/15 04:32:30;;;;;;;9.82;7.80;;;18.30;38.20;;;;;;5074447;28;20025;-35
2022/01/15 04:34:56;;;;;;;10.15;7.78;;;18.30;38.10;;;;;;5073991;28;20379;-36
2022/01/15 04:37:24;;;;;;;10.77;8.65;;;18.30;38.10;;;;;;5074316;28;20091;-35
2022/01/15 04:39:51;;;;;;;10.27;8.38;;;18.40;38.20;;;;;;5074256;28;20070;-35
2022/01/15 04:42:20;;;;;;;10.00;8.13;;;18.40;38.10;;;;;;5074871;28;20031;-36
2022/01/15 04:44:46;;;;;;;9.68;7.65;;;18.40;38.10;;;;;;5074869;28;20031;-35
2022/01/15 04:47:12;;;;;;;10.15;8.32;;;18.40;38.10;;;;;;5074235;28;20016;-37
2022/01/15 04:49:38;;;;;;;11.10;7.93;;;18.40;38.00;;;;;;5074834;28;20483;-35
2022/01/15 04:52:06;;;;;;;10.30;8.23;;;18.40;38.00;;;;;;5074604;28;20490;-35
2022/01/15 04:54:32;;;;;;;10.00;7.97;;;18.40;38.00;;;;;;5074749;28;20032;-35
2022/01/15 04:56:58;;;;;;;10.65;8.43;;;18.40;38.00;;;;;;5074752;28;20040;-36
2022/01/15 04:59:24;;;;;;;10.45;8.60;;;18.40;38.00;;;;;;5074988;28;20040;-35
2022/01/15 05:01:50;;;;;;;9.63;8.40;;;18.40;37.90;;;;;;5074713;28;20025;-36
2022/01/15 05:04:16;;;;;;;9.60;8.00;;;18.40;37.90;;;;;;5075105;28;20036;-35
2022/01/15 05:06:43;;;;;;;10.82;7.90;;;18.40;37.80;;;;;;5075274;28;20020;-35
2022/01/15 05:09:09;;;;;;;10.63;8.38;;;18.40;37.80;;;;;;5075161;28;20009;-35
2022/01/15 05:11:55;;;;;;;10.40;8.50;;;18.40;37.80;;;;;;5057012;28;20043;-35
2022/01/15 05:14:21;;;;;;;9.75;7.80;;;18.40;37.80;;;;;;5075059;28;20017;-35
2022/01/15 05:16:47;;;;;;;10.40;8.68;;;18.40;37.70;;;;;;5075600;28;20462;-35
2022/01/15 05:19:12;;;;;;;10.30;8.50;;;18.40;37.70;;;;;;5057748;28;20070;-36
2022/01/15 05:21:38;;;;;;;11.38;8.90;;;18.40;37.70;;;;;;5074679;28;20059;-35
2022/01/15 05:24:05;;;;;;;11.20;8.50;;;18.40;37.70;;;;;;5076904;28;20566;-35
2022/01/15 05:26:32;;;;;;;9.20;8.20;;;18.40;37.70;;;;;;5079166;28;20041;-36
2022/01/15 05:28:58;;;;;;;9.93;8.30;;;18.40;37.70;;;;;;5078430;28;20443;-36
2022/01/15 05:31:25;;;;;;;10.02;7.95;;;18.40;37.70;;;;;;5078898;28;20064;-36
2022/01/15 05:33:51;;;;;;;10.27;7.88;;;18.40;37.70;;;;;;5079100;28;20017;-35
2022/01/15 05:36:17;;;;;;;11.27;8.38;;;18.40;37.60;;;;;;5078634;28;20013;-35
2022/01/15 05:38:44;;;;;;;11.20;9.10;;;18.50;37.60;;;;;;5078833;28;20043;-36
2022/01/15 05:41:10;;;;;;;12.60;9.02;;;18.40;37.60;;;;;;5078320;28;20352;-36
2022/01/15 05:43:36;;;;;;;10.25;8.50;;;18.40;37.50;;;;;;5078451;28;20119;-35
2022/01/15 05:46:02;;;;;;;10.35;8.10;;;18.40;37.60;;;;;;5078705;28;20075;-37
2022/01/15 05:48:28;;;;;;;12.43;8.02;;;18.50;37.60;;;;;;5078101;28;20023;-35
2022/01/15 05:50:54;;;;;;;10.95;8.07;;;18.40;37.60;;;;;;5078770;28;20534;-35
2022/01/15 05:53:22;;;;;;;10.18;7.97;;;18.40;37.50;;;;;;5078403;28;20025;-36
2022/01/15 05:55:48;;;;;;;9.02;7.70;;;18.40;37.50;;;;;;5078536;28;20097;-35
2022/01/15 05:58:14;;;;;;;10.77;8.52;;;18.50;37.50;;;;;;5078217;28;20024;-36
2022/01/15 06:00:40;;;;;;;10.98;8.10;;;18.50;37.50;;;;;;5078353;28;20071;-35
2022/01/15 06:03:07;;;;;;;9.65;7.97;;;18.50;37.40;;;;;;5078726;28;20124;-35
2022/01/15 06:05:33;;;;;;;10.15;8.30;;;18.50;37.40;;;;;;5077446;28;20043;-35
2022/01/15 06:08:00;;;;;;;10.98;8.60;;;18.50;37.40;;;;;;5078353;28;20017;-35
2022/01/15 06:10:26;;;;;;;10.23;8.32;;;18.50;37.30;;;;;;5078440;28;20068;-35
2022/01/15 06:12:52;;;;;;;13.80;9.18;;;18.50;37.40;;;;;;5078002;28;20100;-36
2022/01/15 06:15:19;;;;;;;11.07;8.50;;;18.50;37.40;;;;;;5060280;28;20028;-35
2022/01/15 06:17:45;;;;;;;11.20;7.95;;;18.50;37.30;;;;;;5077428;28;20020;-35
2022/01/15 06:20:13;;;;;;;10.73;8.13;;;18.50;37.40;;;;;;5077554;28;20016;-35
2022/01/15 06:22:39;;;;;;;11.23;8.40;;;18.50;37.30;;;;;;5077498;28;20471;-35
2022/01/15 06:25:07;;;;;;;11.60;8.73;;;18.50;37.30;;;;;;5077796;28;20048;-36
2022/01/15 06:27:32;;;;;;;10.60;8.30;;;18.50;37.20;;;;;;5078331;28;20027;-35
2022/01/15 06:29:59;;;;;;;11.70;8.60;;;18.60;37.20;;;;;;5077243;28;20013;-35
2022/01/15 06:32:25;;;;;;;9.93;7.97;;;18.60;37.20;;;;;;5077425;28;20016;-43
2022/01/15 06:34:51;;;;;;;10.90;8.50;;;18.60;37.20;;;;;;5076697;28;20032;-35
2022/01/15 06:37:18;;;;;;;11.05;8.63;;;18.50;37.20;;;;;;5077822;28;20013;-36
2022/01/15 06:39:44;;;;;;;10.88;8.25;;;18.50;37.20;;;;;;5077768;28;20100;-35
2022/01/15 06:42:10;;;;;;;11.10;8.63;;;18.50;37.20;;;;;;5078031;28;20071;-36
2022/01/15 06:44:37;;;;;;;10.20;8.25;;;18.50;37.10;;;;;;5077405;28;20093;-36
2022/01/15 06:47:03;;;;;;;10.25;8.15;;;18.50;37.10;;;;;;5078428;28;20040;-37
2022/01/15 06:49:29;;;;;;;11.05;8.70;;;18.60;37.20;;;;;;5078689;28;20021;-35
2022/01/15 06:51:55;;;;;;;12.02;8.38;;;18.60;37.10;;;;;;5079450;28;20246;-36
2022/01/15 06:54:22;;;;;;;10.57;8.80;;;18.50;37.10;;;;;;5077010;28;20043;-35
2022/01/15 06:56:48;;;;;;;10.30;8.23;;;18.60;37.10;;;;;;5079408;28;20067;-36
2022/01/15 06:59:13;;;;;;;10.55;8.73;;;18.60;37.10;;;;;;5079818;28;20525;-36
2022/01/15 07:01:40;;;;;;;11.25;9.13;;;18.60;37.10;;;;;;5061365;28;20040;-36
2022/01/15 07:04:06;;;;;;;10.82;8.90;;;18.60;37.10;;;;;;5078933;28;20037;-36
2022/01/15 07:06:31;;;;;;;11.90;9.10;;;18.60;37.00;;;;;;5077045;28;20414;-35
2022/01/15 07:08:58;;;;;;;10.63;8.75;;;18.60;36.90;;;;;;5057916;28;20493;-35
2022/01/15 07:11:23;;;;;;;10.98;8.80;;;18.60;36.90;;;;;;5075738;28;20017;-35
2022/01/15 07:13:49;;;;;;;11.05;9.02;;;18.60;36.90;;;;;;5075980;28;20027;-35
2022/01/15 07:16:15;;;;;;;11.75;8.93;;;18.60;36.90;;;;;;5058100;28;20375;-35
2022/01/15 07:18:41;;;;;;;11.93;9.25;;;18.60;37.00;;;;;;5057997;28;20013;-35
2022/01/15 07:21:07;;;;;;;12.23;8.93;;;18.60;36.90;;;;;;5076882;28;20467;-36
2022/01/15 07:23:33;;;;;;;13.50;9.40;;;18.60;36.90;;;;;;5077344;28;20016;-35
2022/01/15 07:25:59;;;;;;;12.55;9.65;;;18.60;36.90;;;;;;5078118;28;20153;-36
2022/01/15 07:28:27;;;;;;;14.07;9.73;;;18.60;36.80;;;;;;5078377;28;20024;-36
2022/01/15 07:30:53;;;;;;;12.98;9.73;;;18.60;36.90;;;;;;5078145;28;20017;-35
2022/01/15 07:33:19;;;;;;;11.85;9.38;;;18.60;36.80;;;;;;5059452;28;20490;-36
2022/01/15 07:35:44;;;;;;;12.02;9.60;;;18.60;36.80;;;;;;5060618;28;20028;-35
2022/01/15 07:38:14;;;;;;;12.20;9.15;;;18.60;36.80;;;;;;5060885;28;20096;-36
2022/01/15 07:40:40;;;;;;;12.52;9.38;;;18.60;36.80;;;;;;5077993;28;20024;-36
2022/01/15 07:43:06;;;;;;;13.02;9.93;;;18.70;36.80;;;;;;5077076;28;20020;-35
2022/01/15 07:45:33;;;;;;;13.77;9.70;;;18.60;36.80;;;;;;5078158;28;20028;-36
2022/01/15 07:47:59;;;;;;;12.73;10.05;;;18.60;36.70;;;;;;5078096;28;20015;-36
2022/01/15 07:50:26;;;;;;;12.30;9.88;;;18.60;36.70;;;;;;5078615;28;20482;-36
2022/01/15 07:52:53;;;;;;;13.57;9.77;;;18.70;36.70;;;;;;5078631;28;20478;-35
2022/01/15 07:55:19;;;;;;;12.93;10.13;;;18.70;36.70;;;;;;5078088;28;20039;-35
2022/01/15 07:57:46;;;;;;;12.88;9.80;;;18.70;36.70;;;;;;5060190;28;20016;-35
2022/01/15 08:00:13;;;;;;;12.73;9.50;;;18.70;36.60;;;;;;5077982;28;20055;-35
2022/01/15 08:02:39;;;;;;;12.88;9.50;;;18.60;36.60;;;;;;5077901;28;20017;-35
2022/01/15 08:05:05;;;;;;;12.77;9.38;;;18.70;36.60;;;;;;5060861;28;20090;-36
2022/01/15 08:07:31;;;;;;;12.75;9.50;;;18.70;36.60;;;;;;5076591;28;20066;-35
2022/01/15 08:09:57;;;;;;;12.75;9.98;;;18.70;36.50;;;;;;5058327;28;20422;-36
2022/01/15 08:12:23;;;;;;;13.88;10.20;;;18.70;36.50;;;;;;5077161;28;20602;-36
2022/01/15 08:14:50;;;;;;;13.02;10.07;;;18.70;36.50;;;;;;5075780;28;20098;-35
2022/01/15 08:17:17;;;;;;;13.25;10.05;;;18.70;36.50;;;;;;5077179;28;20013;-36
2022/01/15 08:19:42;;;;;;;13.63;10.38;;;18.70;36.40;;;;;;5076460;28;20020;-35
2022/01/15 08:22:10;;;;;;;14.18;10.07;;;18.70;36.50;;;;;;5058337;28;20395;-36
2022/01/15 08:24:36;;;;;;;15.90;11.60;;;18.70;36.50;;;;;;5076768;28;20604;-35
2022/01/15 08:27:02;;;;;;;14.13;10.45;;;18.70;36.50;;;;;;5075432;28;20016;-35
2022/01/15 08:29:27;;;;;;;14.90;10.75;;;18.80;36.50;;;;;;5057264;28;20063;-35
2022/01/15 08:31:54;;;;;;;14.88;10.85;;;18.80;36.40;;;;;;5075587;28;20020;-35
2022/01/15 08:34:20;;;;;;;13.88;10.07;;;18.70;36.40;;;;;;5075357;28;20029;-36
2022/01/15 08:36:47;;;;;;;14.05;10.60;;;18.80;36.40;;;;;;5075196;28;20020;-35
2022/01/15 08:39:13;;;;;;;13.80;10.25;;;18.80;36.40;;;;;;5075104;28;20522;-35
2022/01/15 08:41:40;;;;;;;13.18;10.00;;;18.80;36.40;;;;;;5075509;28;20076;-35
2022/01/15 08:44:06;;;;;;;15.80;10.27;;;18.70;36.40;;;;;;5075173;28;20048;-36
2022/01/15 08:46:32;;;;;;;13.80;10.43;;;18.80;36.40;;;;;;5057291;28;20024;-35
2022/01/15 08:48:59;;;;;;;14.88;10.98;;;18.70;36.40;;;;;;5075196;28;20028;-35
2022/01/15 08:51:25;;;;;;;13.68;10.68;;;18.80;36.40;;;;;;5075391;28;20017;-36
2022/01/15 08:53:50;;;;;;;15.63;11.35;;;18.70;36.30;;;;;;5075163;28;20048;-36
2022/01/15 08:56:17;;;;;;;15.13;11.02;;;18.80;36.30;;;;;;5075241;28;20035;-36
2022/01/15 08:58:43;;;;;;;14.30;10.77;;;18.80;36.30;;;;;;5057120;28;20017;-35
2022/01/15 09:01:13;;;;;;;14.93;10.88;;;18.80;36.20;;;;;;5057349;28;20024;-35
2022/01/15 09:03:40;;;;;;;15.37;10.77;;;18.80;36.20;;;;;;5074954;28;20024;-36
2022/01/15 09:06:06;;;;;;;14.05;10.80;;;18.80;36.30;;;;;;5074942;28;20277;-36
2022/01/15 09:08:33;;;;;;;14.57;10.88;;;18.80;36.20;;;;;;5057242;28;20009;-36
2022/01/15 09:10:58;;;;;;;14.50;10.73;;;18.80;36.20;;;;;;5074857;28;20033;-35
2022/01/15 09:13:25;;;;;;;14.45;10.85;;;18.80;36.20;;;;;;5075491;28;20023;-36
2022/01/15 09:15:50;;;;;;;15.82;11.23;;;18.80;36.20;;;;;;5057709;28;20475;-35
2022/01/15 09:18:17;;;;;;;15.27;11.27;;;18.80;36.10;;;;;;5057282;28;20047;-36
2022/01/15 09:20:44;;;;;;;14.50;11.25;;;18.80;36.10;;;;;;5076113;28;20058;-35
2022/01/15 09:23:10;;;;;;;15.15;11.45;;;18.80;36.20;;;;;;5075548;28;20031;-36
2022/01/15 09:25:36;;;;;;;17.15;11.63;;;18.80;36.20;;;;;;5076112;28;20503;-36
2022/01/15 09:30:46;;;;;;;16.35;12.20;;;18.80;36.10;;;;;;5076154;28;20027;-36
2022/01/15 09:33:20;;;;;;;14.73;11.73;;;18.80;36.00;;;;;;5057752;28;20016;-36
2022/01/15 09:35:47;;;;;;;14.88;11.13;;;18.80;36.00;;;;;;5075717;28;20032;-36
2022/01/15 09:38:16;;;;;;;15.43;11.40;;;18.80;36.00;;;;;;5075043;28;20463;-35
2022/01/15 09:40:43;;;;;;;16.58;11.70;;;18.80;36.00;;;;;;5076214;28;20020;-35
2022/01/15 09:43:09;;;;;;;16.38;11.70;;;18.80;36.00;;;;;;5075930;28;20067;-36
2022/01/15 09:45:35;;;;;;;17.45;11.85;;;18.90;36.00;;;;;;5075227;28;20052;-36
2022/01/15 09:48:02;;;;;;;16.52;12.02;;;18.90;36.00;;;;;;5057509;28;20058;-35
2022/01/15 09:50:29;;;;;;;14.15;11.27;;;18.90;35.90;;;;;;5057499;28;20380;-36
2022/01/15 09:52:55;;;;;;;14.32;11.27;;;18.90;35.90;;;;;;5075910;28;20012;-36
2022/01/15 09:55:21;;;;;;;16.13;10.90;;;18.90;35.80;;;;;;5056508;28;20044;-36
2022/01/15 09:57:48;;;;;;;15.23;11.55;;;18.90;35.80;;;;;;5075173;28;20021;-35
2022/01/15 10:00:15;;;;;;;15.85;11.65;;;18.90;35.80;;;;;;5057077;28;20032;-36
2022/01/15 10:02:42;;;;;;;15.75;11.55;;;18.90;35.90;;;;;;5075841;28;20498;-35
2022/01/15 10:05:09;;;;;;;16.33;11.70;;;18.90;35.80;;;;;;5075535;28;20033;-36
2022/01/15 10:07:35;;;;;;;14.15;10.77;;;18.90;35.90;;;;;;5076363;28;20012;-35
2022/01/15 10:10:18;;;;;;;15.95;11.52;;;18.90;35.80;;;;;;5076555;28;20154;-36
2022/01/15 10:12:44;;;;;;;16.98;11.70;;;19.00;35.80;;;;;;5079259;28;20481;-36
2022/01/15 10:15:10;;;;;;;16.15;11.80;;;19.00;35.70;;;;;;5080095;28;20017;-35
2022/01/15 10:17:37;;;;;;;15.15;11.13;;;19.00;35.70;;;;;;5080086;28;20028;-36
2022/01/15 10:20:18;;;;;;;16.08;11.57;;;18.90;35.70;;;;;;5079542;28;20017;-36
2022/01/15 10:22:48;;;;;;;17.08;11.93;;;18.90;35.70;;;;;;5079192;28;20038;-35
2022/01/15 10:25:18;;;;;;;15.88;11.55;;;18.90;35.80;;;;;;5078575;28;20476;-36
2022/01/15 10:27:44;;;;;;;16.20;12.07;;;19.00;35.80;;;;;;5079351;28;20020;-35
2022/01/15 10:30:12;;;;;;;14.25;10.90;;;19.00;35.70;;;;;;5079052;28;20042;-36
2022/01/15 10:32:56;;;;;;;14.75;11.38;;;19.00;35.70;;;;;;5079254;28;20013;-35
2022/01/15 10:35:22;;;;;;;16.63;11.80;;;19.00;35.60;;;;;;5062693;28;20025;-35
2022/01/15 10:37:48;;;;;;;14.45;11.10;;;19.00;35.60;;;;;;5078462;28;20029;-36
2022/01/15 10:40:14;;;;;;;15.50;11.23;;;19.00;35.60;;;;;;5077732;28;20025;-36
2022/01/15 10:42:40;;;;;;;15.85;11.45;;;19.00;35.50;;;;;;5059631;28;20020;-36
2022/01/15 10:45:17;;;;;;;14.05;10.68;;;19.00;35.50;;;;;;5059477;28;20510;-35
2022/01/15 10:47:49;;;;;;;14.35;11.20;;;19.00;35.60;;;;;;5077493;28;20032;-35
2022/01/15 10:50:42;;;;;;;16.45;11.80;;;19.00;35.60;;;;;;5077035;28;20467;-36
2022/01/15 10:53:12;;;;;;;14.52;11.07;;;19.10;35.60;;;;;;5076962;28;20021;-36
2022/01/15 10:55:39;;;;;;;16.55;11.88;;;19.10;35.50;;;;;;5077967;28;20363;-36
2022/01/15 10:58:08;;;;;;;13.93;10.45;;;19.10;35.50;;;;;;5077722;28;20017;-36
2022/01/15 11:00:37;;;;;;;15.50;10.77;;;19.10;35.50;;;;;;5077542;28;20012;-36
2022/01/15 11:03:05;;;;;;;14.50;11.20;;;19.10;35.50;;;;;;5078066;28;20033;-37
2022/01/15 11:05:34;;;;;;;16.27;11.60;;;19.10;35.50;;;;;;5077231;28;20379;-35
2022/01/15 11:08:07;;;;;;;15.73;11.05;;;19.10;36.00;;;;;;5077499;28;20021;-37
2022/01/15 11:11:03;;;;;;;14.75;10.55;;;19.10;35.40;;;;;;5077914;28;20071;-37
2022/01/15 11:13:34;;;;;;;15.40;11.10;;;19.10;35.90;;;;;;5077673;28;20016;-37
2022/01/15 11:16:02;;;;;;;15.02;11.13;;;19.20;35.40;;;;;;5077628;28;20420;-37
2022/01/15 11:18:33;;;;;;;14.05;10.85;;;19.10;35.40;;;;;;5079149;28;20017;-37
2022/01/15 11:21:00;;;;;;;14.68;11.02;;;19.10;35.40;;;;;;5078448;28;20024;-37
2022/01/15 11:23:28;;;;;;;16.55;11.18;;;19.20;35.30;;;;;;5078567;28;20012;-36
2022/01/15 11:25:57;;;;;;;14.27;10.63;;;19.20;35.30;;;;;;5077497;28;20024;-36
2022/01/15 11:28:33;;;;;;;12.85;10.10;;;19.20;35.30;;;;;;5076829;28;20100;-36
2022/01/15 11:31:07;;;;;;;14.02;10.80;;;19.20;35.20;;;;;;5076598;28;20016;-37
2022/01/15 11:33:54;;;;;;;13.85;10.73;;;19.20;35.20;;;;;;5076379;28;20024;-36
2022/01/15 11:36:30;;;;;;;13.45;10.45;;;19.30;35.20;;;;;;5062159;28;20028;-36
2022/01/15 11:38:57;;;;;;;13.75;10.50;;;19.30;35.10;;;;;;5077557;28;20016;-36
2022/01/15 11:41:26;;;;;;;13.73;10.50;;;19.30;35.00;;;;;;5077891;28;20052;-36
2022/01/15 11:43:52;;;;;;;14.00;10.45;;;19.40;34.90;;;;;;5077580;28;20024;-36
2022/01/15 11:46:26;;;;;;;14.80;10.80;;;19.50;34.70;;;;;;5077939;28;20020;-35
2022/01/15 11:48:51;;;;;;;15.02;10.88;;;19.50;34.60;;;;;;5077244;28;20067;-36
2022/01/15 11:51:18;;;;;;;13.25;10.57;;;19.60;34.50;;;;;;5077589;28;20005;-36
2022/01/15 11:54:00;;;;;;;13.50;10.45;;;19.60;34.40;;;;;;5076296;28;20046;-35
2022/01/15 11:56:39;;;;;;;13.15;10.25;;;19.60;34.40;;;;;;5075593;28;20013;-36
2022/01/15 11:59:24;;;;;;;13.75;10.52;;;19.70;34.30;;;;;;5059176;28;20009;-35
2022/01/15 12:01:50;;;;;;;13.65;10.27;;;19.70;34.30;;;;;;5076152;28;20144;-36
2022/01/15 12:04:31;;;;;;;13.40;10.20;;;19.70;34.20;;;;;;5075585;28;20028;-36
2022/01/15 12:07:06;;;;;;;12.93;10.63;;;19.80;34.20;;;;;;5075832;28;20070;-36
2022/01/15 12:09:33;;;;;;;12.48;9.80;;;19.70;34.20;;;;;;5075484;28;20023;-36
2022/01/15 12:11:59;;;;;;;12.43;10.02;;;19.70;34.20;;;;;;5075261;28;20095;-35
2022/01/15 12:14:47;;;;;;;11.77;9.57;;;19.70;34.20;;;;;;5075296;28;20039;-36
2022/01/15 12:17:23;;;;;;;12.68;10.27;;;19.70;34.20;;;;;;5075043;28;20016;-37
2022/01/15 12:19:50;;;;;;;11.10;9.30;;;19.80;34.20;;;;;;5075378;28;20115;-35
2022/01/15 12:22:35;;;;;;;12.32;10.00;;;19.80;34.10;;;;;;5056862;28;20091;-36
2022/01/15 12:25:06;;;;;;;13.30;9.90;;;19.80;34.10;;;;;;5074594;28;20086;-36
2022/01/15 12:27:31;;;;;;;11.40;9.30;;;19.80;34.00;;;;;;5074847;28;20024;-36
2022/01/15 12:29:59;;;;;;;11.98;9.43;;;19.80;34.00;;;;;;5074997;28;20008;-35
2022/01/15 12:32:38;;;;;;;11.70;9.63;;;19.80;34.00;;;;;;5074544;28;20013;-36
2022/01/15 12:35:04;;;;;;;12.10;9.27;;;19.80;34.10;;;;;;5074881;28;20028;-35
2022/01/15 12:37:29;;;;;;;13.02;9.65;;;19.80;34.10;;;;;;5074848;28;20137;-36
2022/01/15 12:39:56;;;;;;;11.93;9.43;;;19.80;34.60;;;;;;5074317;28;20021;-36
2022/01/15 12:42:32;;;;;;;12.65;9.90;;;19.80;34.10;;;;;;5074132;28;20368;-35
2022/01/15 12:44:58;;;;;;;10.90;9.13;;;19.70;34.10;;;;;;5074357;28;20020;-35
2022/01/15 12:47:23;;;;;;;12.43;9.45;;;19.70;34.20;;;;;;5074154;28;20078;-37
2022/01/15 12:49:51;;;;;;;12.40;9.27;;;19.70;34.30;;;;;;5074183;28;20016;-36
2022/01/15 12:52:23;;;;;;;11.50;8.98;;;19.60;34.40;;;;;;5074385;28;20012;-36
2022/01/15 12:54:51;;;;;;;11.32;9.23;;;19.50;34.50;;;;;;5074471;28;20051;-36
2022/01/15 12:57:42;;;;;;;11.73;9.48;;;19.50;34.70;;;;;;5074196;28;20020;-35
2022/01/15 13:00:41;;;;;;;12.27;9.63;;;19.40;34.80;;;;;;5074849;28;20111;-36